Time;durP1;ratioP1;P1;durP2;ratioP2;P2;SDS_P1;SDS_P2;PMS_P1;PMS_P2;Temp;Humidity;BMP_temperature;BMP_pressure;BME280_temperature;BME280_humidity;BME280_pressure;Samples;Min_cycle;Max_cycle;Signal;HPM_P1;HPM_P2
2023/12/31 00:01:16;;;;;;;7.90;2.63;;;7.60;1.00;;;;;;5014682;28;20187;-76
2023/12/31 00:03:42;;;;;;;4.40;2.87;;;7.30;1.00;;;;;;5009650;28;20195;-76
2023/12/31 00:06:07;;;;;;;4.73;2.73;;;7.20;1.00;;;;;;5009322;28;20404;-76
2023/12/31 00:08:33;;;;;;;4.83;2.73;;;7.20;1.00;;;;;;5015657;28;20182;-76
2023/12/31 00:11:00;;;;;;;3.30;2.30;;;7.20;1.00;;;;;;5009842;28;20187;-75
2023/12/31 00:13:26;;;;;;;3.70;3.00;;;7.20;1.00;;;;;;5021848;28;20231;-76
2023/12/31 00:15:52;;;;;;;3.60;2.50;;;7.50;1.00;;;;;;5010007;28;20768;-76
2023/12/31 00:18:17;;;;;;;6.67;3.20;;;7.20;1.00;;;;;;5008959;28;20441;-76
2023/12/31 00:20:43;;;;;;;4.37;2.70;;;7.20;1.00;;;;;;5021229;28;20360;-76
2023/12/31 00:23:11;;;;;;;4.43;2.87;;;7.30;1.00;;;;;;5007543;28;20669;-76
2023/12/31 00:25:40;;;;;;;3.33;2.70;;;7.30;1.00;;;;;;5014565;28;20208;-76
2023/12/31 00:28:05;;;;;;;5.80;2.90;;;7.40;1.00;;;;;;5010040;28;20465;-76
2023/12/31 00:30:31;;;;;;;4.90;2.83;;;7.40;1.00;;;;;;5012424;28;20424;-78
2023/12/31 00:32:56;;;;;;;4.07;3.00;;;7.40;1.00;;;;;;5007393;28;20241;-76
2023/12/31 00:35:22;;;;;;;4.73;3.40;;;7.40;1.00;;;;;;5018161;28;20221;-76
2023/12/31 00:37:47;;;;;;;5.50;3.40;;;7.50;1.00;;;;;;5028629;28;20332;-76
2023/12/31 00:40:13;;;;;;;6.53;4.20;;;7.50;1.00;;;;;;5020638;28;20213;-76
2023/12/31 00:42:39;;;;;;;5.13;3.40;;;7.50;1.00;;;;;;5008864;28;20186;-76
2023/12/31 00:45:05;;;;;;;5.33;3.17;;;7.50;1.00;;;;;;5011551;28;20186;-76
2023/12/31 00:47:31;;;;;;;6.20;3.83;;;7.60;1.00;;;;;;5012999;28;20534;-76
2023/12/31 00:49:56;;;;;;;7.13;4.23;;;7.60;1.00;;;;;;5016953;28;20480;-73
2023/12/31 00:52:22;;;;;;;9.57;5.77;;;7.60;1.00;;;;;;5008905;28;20580;-76
2023/12/31 00:54:50;;;;;;;7.37;4.73;;;7.60;1.00;;;;;;5008489;28;20253;-76
2023/12/31 00:57:16;;;;;;;5.43;3.33;;;7.60;1.00;;;;;;5016533;28;20210;-76
2023/12/31 00:59:42;;;;;;;5.70;3.13;;;7.60;1.00;;;;;;5015002;28;20768;-76
2023/12/31 01:02:08;;;;;;;10.40;3.63;;;7.60;1.00;;;;;;5010185;28;20679;-76
2023/12/31 01:04:34;;;;;;;8.93;3.93;;;7.60;1.00;;;;;;5007203;28;20605;-77
2023/12/31 01:07:00;;;;;;;7.90;4.20;;;7.60;1.00;;;;;;5013348;28;20214;-75
2023/12/31 01:09:25;;;;;;;6.47;3.70;;;7.60;1.00;;;;;;5008997;28;20437;-76
2023/12/31 01:11:51;;;;;;;5.10;3.50;;;7.60;1.00;;;;;;5007440;28;20186;-76
2023/12/31 01:14:16;;;;;;;7.47;4.37;;;7.60;1.00;;;;;;5015376;28;20218;-76
2023/12/31 01:16:42;;;;;;;9.00;4.20;;;7.60;1.00;;;;;;5013536;28;20233;-75
2023/12/31 01:19:07;;;;;;;6.60;3.80;;;7.60;1.00;;;;;;5016344;28;20678;-76
2023/12/31 01:21:33;;;;;;;8.07;4.80;;;7.60;1.00;;;;;;5020156;28;20174;-76
2023/12/31 01:23:58;;;;;;;5.70;3.90;;;7.70;1.00;;;;;;5013545;28;20245;-76
2023/12/31 01:26:24;;;;;;;5.60;3.57;;;7.70;1.00;;;;;;5013661;28;20213;-76
2023/12/31 01:28:49;;;;;;;7.57;3.80;;;7.70;1.00;;;;;;5014649;28;20186;-77
2023/12/31 01:31:19;;;;;;;5.40;3.70;;;7.70;1.00;;;;;;5013661;28;20178;-75
2023/12/31 01:33:44;;;;;;;7.67;4.13;;;7.70;1.00;;;;;;5008319;28;20186;-76
2023/12/31 01:36:14;;;;;;;6.97;3.47;;;7.70;1.00;;;;;;5021141;28;20455;-76
2023/12/31 01:38:40;;;;;;;5.10;3.60;;;7.70;1.00;;;;;;5018529;28;20181;-76
2023/12/31 01:41:08;;;;;;;6.87;3.70;;;7.70;1.00;;;;;;5013727;28;20433;-76
2023/12/31 01:43:35;;;;;;;6.03;3.97;;;7.60;1.00;;;;;;5012428;28;20186;-76
2023/12/31 01:46:00;;;;;;;6.77;3.60;;;7.60;1.00;;;;;;5008225;28;21327;-77
2023/12/31 01:48:27;;;;;;;5.33;3.50;;;7.60;1.00;;;;;;5011065;28;20509;-76
2023/12/31 01:50:53;;;;;;;5.87;4.00;;;7.60;1.00;;;;;;5011292;28;20715;-76
2023/12/31 01:53:20;;;;;;;7.07;4.30;;;7.60;1.00;;;;;;5011637;28;20455;-76
2023/12/31 01:55:47;;;;;;;13.70;4.77;;;7.60;1.00;;;;;;5014243;28;20422;-73
2023/12/31 01:58:14;;;;;;;6.80;4.57;;;7.60;1.00;;;;;;5020752;28;20448;-76
2023/12/31 02:00:40;;;;;;;9.23;4.33;;;7.60;1.00;;;;;;5023993;28;21219;-76
2023/12/31 02:03:07;;;;;;;8.40;4.10;;;7.40;1.00;;;;;;5017923;28;20435;-75
2023/12/31 02:05:32;;;;;;;7.13;4.47;;;7.60;1.00;;;;;;5028754;28;20722;-76
2023/12/31 02:07:58;;;;;;;5.27;3.70;;;7.60;1.00;;;;;;5012880;28;20500;-76
2023/12/31 02:10:24;;;;;;;8.30;4.40;;;7.70;1.00;;;;;;5012507;28;20200;-76
2023/12/31 02:12:50;;;;;;;7.87;4.33;;;7.60;1.00;;;;;;5019940;28;20198;-77
2023/12/31 02:15:29;;;;;;;7.80;3.93;;;7.60;1.00;;;;;;5015874;28;20754;-76
2023/12/31 02:17:55;;;;;;;7.40;4.07;;;7.50;1.00;;;;;;5015150;28;20499;-76
2023/12/31 02:20:20;;;;;;;6.53;4.10;;;7.60;1.00;;;;;;5012398;28;20888;-76
2023/12/31 02:22:46;;;;;;;6.20;4.70;;;7.60;1.00;;;;;;5011408;28;20702;-77
2023/12/31 02:25:14;;;;;;;8.60;4.03;;;7.60;1.00;;;;;;5021204;28;20198;-75
2023/12/31 02:27:39;;;;;;;6.23;3.87;;;7.70;1.00;;;;;;5010976;28;20688;-76
2023/12/31 02:30:05;;;;;;;6.40;4.00;;;7.70;1.00;;;;;;5010607;28;20472;-76
2023/12/31 02:32:31;;;;;;;6.63;4.20;;;7.70;1.00;;;;;;5012779;28;20174;-76
2023/12/31 02:34:57;;;;;;;6.60;3.70;;;7.80;1.00;;;;;;5015422;28;20484;-76
2023/12/31 02:37:22;;;;;;;7.20;4.33;;;7.80;1.00;;;;;;5010432;28;20206;-75
2023/12/31 02:39:48;;;;;;;7.07;3.90;;;7.80;1.00;;;;;;5011603;28;20198;-76
2023/12/31 02:42:13;;;;;;;5.70;3.70;;;7.80;1.00;;;;;;5011075;28;20657;-74
2023/12/31 02:44:39;;;;;;;7.43;4.33;;;7.80;1.00;;;;;;5024666;28;20668;-77
2023/12/31 02:47:04;;;;;;;6.90;3.93;;;7.90;1.00;;;;;;5009870;28;20775;-73
2023/12/31 02:49:30;;;;;;;7.90;4.27;;;7.90;1.00;;;;;;5018246;28;20186;-73
2023/12/31 02:51:55;;;;;;;7.60;4.40;;;7.90;1.00;;;;;;5012538;28;20206;-74
2023/12/31 02:54:21;;;;;;;5.57;3.83;;;7.90;1.00;;;;;;5020754;28;20560;-73
2023/12/31 02:56:46;;;;;;;5.70;3.80;;;7.80;1.00;;;;;;5013654;28;20384;-73
2023/12/31 02:59:12;;;;;;;6.90;3.50;;;7.80;1.00;;;;;;5008710;28;20660;-73
2023/12/31 03:01:37;;;;;;;6.90;3.63;;;7.90;1.00;;;;;;5010551;28;20201;-73
2023/12/31 03:04:03;;;;;;;6.77;4.13;;;7.90;1.00;;;;;;5016764;28;20204;-73
2023/12/31 03:06:31;;;;;;;7.07;3.87;;;7.90;1.00;;;;;;5018209;28;20217;-74
2023/12/31 03:09:01;;;;;;;11.10;4.00;;;8.00;1.00;;;;;;5018736;28;20552;-73
2023/12/31 03:11:27;;;;;;;5.40;3.67;;;8.00;1.00;;;;;;5026975;28;20420;-73
2023/12/31 03:13:52;;;;;;;6.60;3.93;;;8.10;1.00;;;;;;5027084;28;20504;-75
2023/12/31 03:16:18;;;;;;;5.70;4.03;;;8.20;1.00;;;;;;5013990;28;20696;-73
2023/12/31 03:18:43;;;;;;;5.70;4.37;;;8.20;1.00;;;;;;5010150;28;20186;-73
2023/12/31 03:21:15;;;;;;;6.07;3.70;;;8.20;1.00;;;;;;5008763;28;20185;-74
2023/12/31 03:23:41;;;;;;;5.20;4.00;;;8.20;1.00;;;;;;5008648;28;20649;-75
2023/12/31 03:26:06;;;;;;;8.40;3.60;;;8.30;1.00;;;;;;5009619;28;20421;-74
2023/12/31 03:28:32;;;;;;;6.17;3.73;;;8.30;1.00;;;;;;5020099;28;20184;-74
2023/12/31 03:30:57;;;;;;;5.60;3.73;;;8.40;1.00;;;;;;5020287;28;20437;-73
2023/12/31 03:33:23;;;;;;;4.90;3.60;;;8.40;1.00;;;;;;5009731;28;20227;-74
2023/12/31 03:35:49;;;;;;;5.63;3.40;;;8.50;1.00;;;;;;5017587;28;20651;-74
2023/12/31 03:38:14;;;;;;;5.27;3.40;;;8.50;1.00;;;;;;5014730;28;20285;-73
2023/12/31 03:40:40;;;;;;;4.60;3.67;;;8.50;1.00;;;;;;5029817;28;20186;-74
2023/12/31 03:43:06;;;;;;;5.60;3.20;;;8.50;1.00;;;;;;5012154;28;20186;-73
2023/12/31 03:45:32;;;;;;;5.00;3.37;;;8.40;1.00;;;;;;5011786;28;20422;-74
2023/12/31 03:47:57;;;;;;;4.93;3.50;;;8.30;1.00;;;;;;5009535;28;20210;-74
2023/12/31 03:50:23;;;;;;;4.07;3.30;;;8.30;1.00;;;;;;5011497;28;20190;-74
2023/12/31 03:52:48;;;;;;;5.60;3.57;;;8.30;1.00;;;;;;5020221;28;20201;-74
2023/12/31 03:55:14;;;;;;;5.70;3.60;;;8.40;1.00;;;;;;5009944;28;20182;-73
2023/12/31 03:57:39;;;;;;;5.03;3.23;;;8.40;1.00;;;;;;5011061;28;20205;-74
2023/12/31 04:00:08;;;;;;;4.73;2.97;;;8.40;1.00;;;;;;5017386;28;20190;-74
2023/12/31 04:02:34;;;;;;;3.83;3.00;;;8.40;1.00;;;;;;5023254;28;20186;-73
2023/12/31 04:04:59;;;;;;;4.90;2.83;;;8.40;1.00;;;;;;5020486;28;20440;-74
2023/12/31 04:07:25;;;;;;;5.13;3.03;;;8.50;1.00;;;;;;5012589;28;20458;-74
2023/12/31 04:09:50;;;;;;;5.20;3.27;;;8.50;1.00;;;;;;5016272;28;20178;-74
2023/12/31 04:12:16;;;;;;;3.97;2.87;;;8.60;1.00;;;;;;5012409;28;20190;-74
2023/12/31 04:14:41;;;;;;;4.83;3.40;;;8.60;1.00;;;;;;5009310;28;20320;-73
2023/12/31 04:17:07;;;;;;;4.33;2.43;;;8.60;1.00;;;;;;5024546;28;20871;-73
2023/12/31 04:19:32;;;;;;;5.00;3.00;;;8.70;1.00;;;;;;5012387;28;20197;-73
2023/12/31 04:21:58;;;;;;;3.57;2.47;;;8.80;1.00;;;;;;5020200;28;20190;-74
2023/12/31 04:24:23;;;;;;;4.30;2.80;;;9.00;1.00;;;;;;5008414;28;20692;-75
2023/12/31 04:26:49;;;;;;;3.67;2.60;;;9.00;1.00;;;;;;5020248;28;20228;-73
2023/12/31 04:29:14;;;;;;;4.40;3.17;;;9.00;1.00;;;;;;5012310;28;20182;-74
2023/12/31 04:31:47;;;;;;;5.57;3.17;;;9.00;1.00;;;;;;5008584;28;20182;-74
2023/12/31 04:34:13;;;;;;;3.93;2.87;;;9.00;1.00;;;;;;5015547;28;20178;-74
2023/12/31 04:36:46;;;;;;;4.20;3.00;;;9.10;1.00;;;;;;5014243;28;20448;-74
2023/12/31 04:39:12;;;;;;;3.63;2.97;;;9.10;1.00;;;;;;5013038;28;20483;-74
2023/12/31 04:41:38;;;;;;;3.63;2.70;;;9.10;1.00;;;;;;5006986;28;20437;-74
2023/12/31 04:44:04;;;;;;;3.40;2.70;;;9.20;1.00;;;;;;5012357;28;20433;-74
2023/12/31 04:46:30;;;;;;;4.13;2.57;;;9.10;1.00;;;;;;5009664;28;20458;-74
2023/12/31 04:48:55;;;;;;;6.17;2.70;;;9.20;1.00;;;;;;5018097;28;20542;-74
2023/12/31 04:51:29;;;;;;;10.43;2.73;;;9.20;1.00;;;;;;5011713;28;20170;-74
2023/12/31 04:53:55;;;;;;;6.20;2.93;;;9.20;1.00;;;;;;5021619;28;20182;-74
2023/12/31 04:56:22;;;;;;;5.73;3.40;;;9.30;1.00;;;;;;5008149;28;20437;-75
2023/12/31 04:58:52;;;;;;;7.63;2.77;;;9.20;1.00;;;;;;5024367;28;20457;-75
2023/12/31 05:01:18;;;;;;;3.60;2.67;;;9.30;1.00;;;;;;5020847;28;20424;-74
2023/12/31 05:03:48;;;;;;;3.50;2.60;;;9.50;1.00;;;;;;5017102;28;20432;-74
2023/12/31 05:06:14;;;;;;;4.17;2.67;;;9.30;1.00;;;;;;5014637;28;20436;-75
2023/12/31 05:08:43;;;;;;;5.00;3.10;;;9.20;1.00;;;;;;5018002;28;20800;-75
2023/12/31 05:11:10;;;;;;;4.93;2.67;;;9.30;1.00;;;;;;5015913;28;20264;-74
2023/12/31 05:13:36;;;;;;;4.27;3.00;;;9.30;1.00;;;;;;5020547;28;21028;-74
2023/12/31 05:16:02;;;;;;;4.60;2.43;;;9.30;1.00;;;;;;5012533;28;20965;-75
2023/12/31 05:18:27;;;;;;;3.50;2.37;;;9.30;1.00;;;;;;5010844;28;20481;-74
2023/12/31 05:20:53;;;;;;;3.40;2.50;;;9.30;1.00;;;;;;5014340;28;20231;-74
2023/12/31 05:23:19;;;;;;;4.23;2.67;;;9.40;1.00;;;;;;5011936;28;20182;-74
2023/12/31 05:25:44;;;;;;;4.03;2.53;;;10.40;1.00;;;;;;5011088;28;20718;-74
2023/12/31 05:28:10;;;;;;;3.60;2.20;;;9.40;1.00;;;;;;5012138;28;21004;-74
2023/12/31 05:30:35;;;;;;;3.33;2.37;;;9.40;1.00;;;;;;5012095;28;20178;-74
2023/12/31 05:33:01;;;;;;;6.97;3.00;;;9.50;1.00;;;;;;5017785;28;20659;-74
2023/12/31 05:35:26;;;;;;;3.63;2.20;;;9.50;1.00;;;;;;5013469;28;20557;-74
2023/12/31 05:37:52;;;;;;;4.97;2.80;;;9.50;1.00;;;;;;5012169;28;20301;-74
2023/12/31 05:40:18;;;;;;;3.53;2.60;;;9.60;1.00;;;;;;5017935;28;20190;-74
2023/12/31 05:42:43;;;;;;;2.50;2.10;;;9.50;1.00;;;;;;5017550;28;20193;-74
2023/12/31 05:45:09;;;;;;;2.47;2.10;;;9.50;1.00;;;;;;5011994;28;20276;-74
2023/12/31 05:47:35;;;;;;;3.60;2.40;;;9.60;1.00;;;;;;5021608;28;20209;-74
2023/12/31 05:50:00;;;;;;;2.67;2.13;;;9.60;1.00;;;;;;5020036;28;20504;-74
2023/12/31 05:52:26;;;;;;;4.27;2.87;;;9.50;1.00;;;;;;5010996;28;20552;-74
2023/12/31 05:54:51;;;;;;;3.90;2.37;;;9.50;1.00;;;;;;5012866;28;20248;-75
2023/12/31 05:57:17;;;;;;;3.27;2.10;;;9.40;1.00;;;;;;5011708;28;20800;-73
2023/12/31 05:59:42;;;;;;;2.17;1.90;;;9.40;1.00;;;;;;5022107;28;20199;-74
2023/12/31 06:02:08;;;;;;;3.40;2.40;;;9.40;1.00;;;;;;5016570;28;20201;-76
2023/12/31 06:04:33;;;;;;;3.37;2.40;;;9.40;1.00;;;;;;5010621;28;20681;-74
2023/12/31 06:06:59;;;;;;;2.40;2.03;;;9.40;1.00;;;;;;5018188;28;20221;-74
2023/12/31 06:09:26;;;;;;;2.97;2.07;;;9.40;1.00;;;;;;5011177;28;20210;-75
2023/12/31 06:11:52;;;;;;;3.07;2.27;;;11.00;1.00;;;;;;5013946;28;20186;-74
2023/12/31 06:14:17;;;;;;;3.40;2.30;;;9.30;1.00;;;;;;5010117;28;20426;-74
2023/12/31 06:16:43;;;;;;;3.93;3.07;;;9.40;1.00;;;;;;5010057;28;20211;-73
2023/12/31 06:19:08;;;;;;;3.53;2.27;;;9.40;1.00;;;;;;5021793;28;20225;-74
2023/12/31 06:21:34;;;;;;;2.60;2.20;;;9.40;1.00;;;;;;5020458;28;20182;-73
2023/12/31 06:23:59;;;;;;;3.83;2.53;;;9.40;1.00;;;;;;5011279;28;20182;-73
2023/12/31 06:26:25;;;;;;;2.77;2.20;;;9.30;1.00;;;;;;5011453;28;20210;-75
2023/12/31 06:28:50;;;;;;;3.10;2.40;;;9.40;1.00;;;;;;5027640;28;20560;-74
2023/12/31 06:31:16;;;;;;;4.70;2.80;;;9.30;1.00;;;;;;5018122;28;20178;-74
2023/12/31 06:33:41;;;;;;;4.70;2.80;;;9.30;1.00;;;;;;5022512;28;20190;-75
2023/12/31 06:36:07;;;;;;;4.50;2.40;;;9.20;1.00;;;;;;5018779;28;20409;-74
2023/12/31 06:38:32;;;;;;;3.03;2.33;;;9.20;1.00;;;;;;5019262;28;20178;-73
2023/12/31 06:40:58;;;;;;;4.40;2.40;;;9.10;1.00;;;;;;5011337;28;20179;-74
2023/12/31 06:43:24;;;;;;;4.53;2.50;;;9.10;1.00;;;;;;5018728;28;20271;-74
2023/12/31 06:45:49;;;;;;;4.27;2.17;;;9.10;1.00;;;;;;5019146;28;20270;-74
2023/12/31 06:48:15;;;;;;;3.30;2.10;;;9.00;1.00;;;;;;5014542;28;20205;-74
2023/12/31 06:50:40;;;;;;;5.83;2.40;;;9.10;1.00;;;;;;5025735;28;20188;-74
2023/12/31 06:53:06;;;;;;;3.13;2.40;;;9.10;1.00;;;;;;5014823;28;20177;-72
2023/12/31 06:55:31;;;;;;;6.73;2.60;;;9.00;1.00;;;;;;5021778;28;20178;-73
2023/12/31 06:57:57;;;;;;;3.73;2.73;;;9.00;1.00;;;;;;5022590;28;20615;-74
2023/12/31 07:00:23;;;;;;;6.97;3.90;;;9.00;1.00;;;;;;5022686;28;20182;-73
2023/12/31 07:02:48;;;;;;;3.43;2.30;;;9.00;1.00;;;;;;5011427;28;20236;-74
2023/12/31 07:05:14;;;;;;;3.70;2.27;;;9.00;1.00;;;;;;5010579;28;20183;-74
2023/12/31 07:07:40;;;;;;;2.90;2.17;;;9.00;1.00;;;;;;5016942;28;20209;-74
2023/12/31 07:10:06;;;;;;;3.37;2.40;;;9.00;1.00;;;;;;5010767;28;20178;-73
2023/12/31 07:12:32;;;;;;;4.67;2.83;;;9.00;1.00;;;;;;5016596;28;20425;-73
2023/12/31 07:14:57;;;;;;;3.23;2.60;;;8.80;1.00;;;;;;5014353;28;20428;-74
2023/12/31 07:17:23;;;;;;;5.33;2.90;;;8.60;1.00;;;;;;5008888;28;20229;-74
2023/12/31 07:19:49;;;;;;;3.90;2.90;;;8.50;1.00;;;;;;5026457;28;20208;-73
2023/12/31 07:22:14;;;;;;;4.93;2.83;;;8.50;1.00;;;;;;5022491;28;20201;-74
2023/12/31 07:24:40;;;;;;;4.23;2.63;;;8.50;1.00;;;;;;5011752;28;20687;-74
2023/12/31 07:27:08;;;;;;;4.27;2.70;;;8.50;1.00;;;;;;5018215;28;20210;-75
2023/12/31 07:29:33;;;;;;;4.90;3.63;;;8.50;1.00;;;;;;5010128;28;20569;-71
2023/12/31 07:31:59;;;;;;;3.20;2.60;;;8.50;1.00;;;;;;5016857;28;20429;-74
2023/12/31 07:34:24;;;;;;;5.53;2.80;;;8.50;1.00;;;;;;5025619;28;20201;-74
2023/12/31 07:36:50;;;;;;;3.90;2.63;;;8.50;1.00;;;;;;5010321;28;20336;-74
2023/12/31 07:39:15;;;;;;;3.80;2.77;;;8.40;1.00;;;;;;5010397;28;20183;-74
2023/12/31 07:41:41;;;;;;;5.00;2.70;;;8.40;1.00;;;;;;5009397;28;20232;-73
2023/12/31 07:44:06;;;;;;;4.80;2.73;;;8.40;1.00;;;;;;5018420;28;20561;-75
2023/12/31 07:46:32;;;;;;;6.00;3.13;;;8.50;1.00;;;;;;5016254;28;20285;-74
2023/12/31 07:48:57;;;;;;;4.90;3.00;;;8.60;1.00;;;;;;5014760;28;20182;-75
2023/12/31 07:51:23;;;;;;;4.27;3.10;;;8.60;1.00;;;;;;5009659;28;20178;-75
2023/12/31 07:53:49;;;;;;;4.60;3.00;;;8.60;1.00;;;;;;5019660;28;20256;-74
2023/12/31 07:56:14;;;;;;;4.43;2.80;;;8.70;1.00;;;;;;5027948;28;20429;-73
2023/12/31 07:58:40;;;;;;;6.20;4.10;;;8.70;1.00;;;;;;5020940;28;20189;-74
2023/12/31 08:01:05;;;;;;;4.60;2.93;;;8.70;1.00;;;;;;5010074;28;20656;-73
2023/12/31 08:03:31;;;;;;;4.37;3.20;;;8.80;1.00;;;;;;5009936;28;20581;-72
2023/12/31 08:05:57;;;;;;;3.00;2.63;;;8.80;1.00;;;;;;5009076;28;20182;-72
2023/12/31 08:08:23;;;;;;;5.20;3.00;;;8.80;1.00;;;;;;5009339;28;20218;-71
2023/12/31 08:10:49;;;;;;;3.80;2.50;;;8.90;1.00;;;;;;5009336;28;20434;-72
2023/12/31 08:13:15;;;;;;;3.53;2.40;;;8.90;1.00;;;;;;5023207;28;20435;-73
2023/12/31 08:15:41;;;;;;;3.57;2.50;;;9.00;1.00;;;;;;5012531;28;20200;-74
2023/12/31 08:18:06;;;;;;;3.43;2.43;;;9.10;1.00;;;;;;5024991;28;20515;-73
2023/12/31 08:20:33;;;;;;;4.63;2.13;;;9.10;1.00;;;;;;5007821;28;20226;-73
2023/12/31 08:23:00;;;;;;;2.90;2.30;;;9.10;1.00;;;;;;5017735;28;20193;-74
2023/12/31 08:25:26;;;;;;;2.97;2.60;;;9.20;1.00;;;;;;5009116;28;20456;-73
2023/12/31 08:27:51;;;;;;;2.80;2.20;;;9.30;1.00;;;;;;5008844;28;20898;-74
2023/12/31 08:30:17;;;;;;;2.73;2.23;;;9.40;1.00;;;;;;5008768;28;20186;-74
2023/12/31 08:32:42;;;;;;;4.60;2.90;;;9.50;1.00;;;;;;5013324;28;20209;-72
2023/12/31 08:35:11;;;;;;;2.90;2.40;;;9.50;1.00;;;;;;5007568;28;20178;-72
2023/12/31 08:37:36;;;;;;;2.90;2.20;;;9.50;1.00;;;;;;5009217;28;20245;-73
2023/12/31 08:40:03;;;;;;;3.93;2.87;;;9.60;1.00;;;;;;5017779;28;20429;-74
2023/12/31 08:42:28;;;;;;;11.03;5.20;;;9.70;1.00;;;;;;5012990;28;20239;-73
2023/12/31 08:44:54;;;;;;;4.10;2.60;;;9.80;1.00;;;;;;5006664;28;20876;-73
2023/12/31 08:47:19;;;;;;;7.07;4.10;;;10.00;1.00;;;;;;5007660;28;20330;-74
2023/12/31 08:49:45;;;;;;;3.63;2.40;;;10.10;1.00;;;;;;5010843;28;20178;-73
2023/12/31 08:52:10;;;;;;;5.87;3.60;;;10.20;1.00;;;;;;5008951;28;20186;-73
2023/12/31 08:54:36;;;;;;;3.50;2.57;;;10.30;1.00;;;;;;5020441;28;20178;-73
2023/12/31 08:57:02;;;;;;;4.07;2.00;;;10.40;1.00;;;;;;5010978;28;20328;-74
2023/12/31 08:59:27;;;;;;;2.20;1.63;;;10.50;1.00;;;;;;5017045;28;20433;-73
2023/12/31 09:01:53;;;;;;;2.27;1.60;;;10.50;1.00;;;;;;5008616;28;20186;-73
2023/12/31 09:04:19;;;;;;;3.17;2.40;;;10.50;1.00;;;;;;5015318;28;20253;-74
2023/12/31 09:06:46;;;;;;;2.47;1.80;;;10.70;1.00;;;;;;5009693;28;20933;-74
2023/12/31 09:09:11;;;;;;;6.33;2.10;;;10.70;1.00;;;;;;5011093;28;20483;-74
2023/12/31 09:11:37;;;;;;;3.30;1.90;;;10.80;1.00;;;;;;5011750;28;20425;-74
2023/12/31 09:14:02;;;;;;;2.40;1.67;;;10.80;1.00;;;;;;5021771;28;20534;-73
2023/12/31 09:16:28;;;;;;;2.97;2.47;;;11.00;1.00;;;;;;5016779;28;20229;-73
2023/12/31 09:18:53;;;;;;;2.17;1.77;;;11.00;1.00;;;;;;5008375;28;20715;-74
2023/12/31 09:21:19;;;;;;;2.30;1.90;;;11.10;1.00;;;;;;5014934;28;20178;-74
2023/12/31 09:23:45;;;;;;;1.90;1.60;;;11.20;1.00;;;;;;5008482;28;20191;-73
2023/12/31 09:26:10;;;;;;;4.10;2.80;;;11.20;1.00;;;;;;5016371;28;20187;-73
2023/12/31 09:28:36;;;;;;;4.20;2.47;;;11.20;1.00;;;;;;5014209;28;20257;-73
2023/12/31 09:31:02;;;;;;;5.20;3.00;;;11.20;1.00;;;;;;5011872;28;20186;-73
2023/12/31 09:33:27;;;;;;;7.93;2.40;;;11.30;1.00;;;;;;5007597;28;20187;-72
2023/12/31 09:35:53;;;;;;;3.50;2.10;;;11.40;1.00;;;;;;5022447;28;20189;-74
2023/12/31 09:38:19;;;;;;;3.60;2.30;;;11.40;1.00;;;;;;5007860;28;20207;-73
2023/12/31 09:40:44;;;;;;;2.03;1.83;;;11.40;1.00;;;;;;5015861;28;20239;-74
2023/12/31 09:43:13;;;;;;;3.27;2.20;;;11.30;1.00;;;;;;5017639;28;20190;-73
2023/12/31 09:45:39;;;;;;;2.70;1.87;;;11.30;1.00;;;;;;5016681;28;20195;-74
2023/12/31 09:48:07;;;;;;;6.40;2.40;;;11.30;1.00;;;;;;5017869;28;20870;-74
2023/12/31 09:50:33;;;;;;;2.40;2.00;;;11.20;1.00;;;;;;5021355;28;20978;-74
2023/12/31 09:53:02;;;;;;;2.80;1.93;;;11.30;1.00;;;;;;5013684;28;20425;-73
2023/12/31 09:55:29;;;;;;;3.10;2.10;;;11.40;1.00;;;;;;5010481;28;20483;-73
2023/12/31 09:57:55;;;;;;;2.47;1.67;;;11.50;1.00;;;;;;5011328;28;21164;-73
2023/12/31 10:00:21;;;;;;;2.53;1.70;;;11.60;1.00;;;;;;5011881;28;20504;-76
2023/12/31 10:02:51;;;;;;;2.60;1.80;;;11.70;1.00;;;;;;5011787;28;20524;-74
2023/12/31 10:05:16;;;;;;;2.60;1.90;;;11.70;1.00;;;;;;5016179;28;20265;-73
2023/12/31 10:07:43;;;;;;;1.80;1.57;;;11.80;1.00;;;;;;5026437;28;20567;-74
2023/12/31 10:10:09;;;;;;;3.70;1.80;;;11.80;1.00;;;;;;5028463;28;20200;-74
2023/12/31 10:12:36;;;;;;;2.27;1.90;;;11.90;1.00;;;;;;5026339;28;21077;-73
2023/12/31 10:15:01;;;;;;;3.00;1.77;;;12.00;1.00;;;;;;5017709;28;21129;-73
2023/12/31 10:17:29;;;;;;;2.73;1.90;;;11.90;1.00;;;;;;5020875;28;20465;-74
2023/12/31 10:19:56;;;;;;;3.50;2.10;;;11.90;1.00;;;;;;5011863;28;20210;-74
2023/12/31 10:22:22;;;;;;;2.13;1.60;;;11.80;1.00;;;;;;5019419;28;20428;-73
2023/12/31 10:24:47;;;;;;;3.40;1.90;;;11.80;1.00;;;;;;5010217;28;20433;-73
2023/12/31 10:27:13;;;;;;;2.57;1.80;;;11.80;1.00;;;;;;5012396;28;20217;-73
2023/12/31 10:29:38;;;;;;;3.90;1.77;;;11.70;1.00;;;;;;5017671;28;20623;-74
2023/12/31 10:32:05;;;;;;;3.37;2.40;;;11.80;1.00;;;;;;5016268;28;20677;-74
2023/12/31 10:34:31;;;;;;;3.10;2.17;;;11.80;1.00;;;;;;5010033;28;20179;-73
2023/12/31 10:37:07;;;;;;;2.30;1.73;;;11.70;1.00;;;;;;5015892;28;20538;-73
2023/12/31 10:39:35;;;;;;;3.00;1.97;;;11.70;1.00;;;;;;5010710;28;20174;-74
2023/12/31 10:42:05;;;;;;;3.00;1.90;;;11.80;1.00;;;;;;5012996;28;20912;-74
2023/12/31 10:44:38;;;;;;;2.67;2.00;;;11.70;1.00;;;;;;5009508;28;20444;-74
2023/12/31 10:47:09;;;;;;;2.30;1.90;;;11.80;1.00;;;;;;5008578;28;20469;-75
2023/12/31 10:49:40;;;;;;;3.23;2.70;;;12.20;1.00;;;;;;5011803;28;20971;-76
2023/12/31 10:52:06;;;;;;;4.27;2.30;;;11.70;1.00;;;;;;5018353;28;20463;-74
2023/12/31 10:54:49;;;;;;;2.93;2.43;;;11.60;1.00;;;;;;5010658;28;20445;-74
2023/12/31 10:57:16;;;;;;;3.33;2.70;;;11.30;1.00;;;;;;5010200;28;20209;-74
2023/12/31 10:59:43;;;;;;;6.10;3.20;;;11.30;1.00;;;;;;5025615;28;20435;-74
2023/12/31 11:02:20;;;;;;;4.03;2.37;;;10.80;1.00;;;;;;5009986;28;20455;-75
2023/12/31 11:04:47;;;;;;;2.87;2.27;;;10.40;1.00;;;;;;5010799;28;20832;-75
2023/12/31 11:07:14;;;;;;;4.37;2.50;;;10.10;1.00;;;;;;5009438;28;20465;-74
2023/12/31 11:09:42;;;;;;;5.30;2.80;;;10.00;1.00;;;;;;5018519;28;20459;-76
2023/12/31 11:12:08;;;;;;;2.50;2.00;;;9.60;1.00;;;;;;5018246;28;20497;-76
2023/12/31 11:14:37;;;;;;;5.83;2.73;;;9.30;1.00;;;;;;5015742;28;20512;-74
2023/12/31 11:17:20;;;;;;;3.50;2.67;;;9.10;1.00;;;;;;5007787;28;20202;-75
2023/12/31 11:20:23;;;;;;;3.00;2.40;;;9.00;1.00;;;;;;5015642;28;20950;-73
2023/12/31 11:23:23;;;;;;;3.00;2.70;;;8.90;1.00;;;;;;5016288;28;20980;-75
2023/12/31 11:25:49;;;;;;;5.07;2.40;;;8.90;1.00;;;;;;5007521;28;20429;-74
2023/12/31 11:28:17;;;;;;;5.07;3.10;;;8.80;1.00;;;;;;5020513;28;20461;-75
2023/12/31 11:30:58;;;;;;;3.30;2.57;;;8.80;1.00;;;;;;5010093;28;20187;-75
2023/12/31 11:33:31;;;;;;;3.87;2.57;;;8.80;1.00;;;;;;5005750;28;20494;-74
2023/12/31 11:36:02;;;;;;;3.23;2.67;;;8.80;1.00;;;;;;5009581;28;20425;-73
2023/12/31 11:38:47;;;;;;;2.70;2.07;;;8.80;1.00;;;;;;5014246;28;21053;-73
2023/12/31 11:41:13;;;;;;;3.73;2.53;;;8.80;1.00;;;;;;5021867;28;20432;-74
2023/12/31 11:43:39;;;;;;;3.77;2.23;;;8.80;1.00;;;;;;5009857;28;20830;-73
2023/12/31 11:46:05;;;;;;;3.00;2.20;;;8.80;1.00;;;;;;5012019;28;20262;-72
2023/12/31 11:48:30;;;;;;;5.10;2.30;;;8.80;1.00;;;;;;5009307;28;20626;-74
2023/12/31 11:50:58;;;;;;;3.70;2.70;;;8.80;1.00;;;;;;5010347;28;20524;-73
2023/12/31 11:53:27;;;;;;;4.13;2.60;;;8.80;1.00;;;;;;5004440;28;20217;-74
2023/12/31 11:55:57;;;;;;;4.00;2.73;;;8.80;1.00;;;;;;5015022;28;20876;-74
2023/12/31 11:58:22;;;;;;;4.07;2.30;;;8.80;1.00;;;;;;5022212;28;21087;-74
2023/12/31 12:00:52;;;;;;;3.70;2.57;;;8.80;1.00;;;;;;5019166;28;20575;-75
2023/12/31 12:03:19;;;;;;;7.33;3.10;;;8.80;1.00;;;;;;5014260;28;20553;-73
2023/12/31 12:05:50;;;;;;;3.50;2.40;;;8.80;1.00;;;;;;5010112;28;20515;-75
2023/12/31 12:08:16;;;;;;;3.50;2.60;;;8.90;1.00;;;;;;5015340;28;20480;-75
2023/12/31 12:10:42;;;;;;;3.57;2.40;;;8.90;1.00;;;;;;5010538;28;20425;-74
2023/12/31 12:13:08;;;;;;;3.70;2.13;;;9.00;1.00;;;;;;5018328;28;20503;-75
2023/12/31 12:15:35;;;;;;;3.00;2.20;;;8.90;1.00;;;;;;5021008;28;20439;-74
2023/12/31 12:18:11;;;;;;;3.70;2.50;;;8.90;1.00;;;;;;5019437;28;20502;-74
2023/12/31 12:20:37;;;;;;;2.77;2.20;;;8.80;1.00;;;;;;5012465;28;20435;-74
2023/12/31 12:23:02;;;;;;;5.43;2.70;;;8.90;1.00;;;;;;5015913;28;20471;-72
2023/12/31 12:25:28;;;;;;;2.73;2.13;;;8.90;1.00;;;;;;5015608;28;20220;-74
2023/12/31 12:27:54;;;;;;;2.40;2.20;;;9.00;1.00;;;;;;5008722;28;20573;-74
2023/12/31 12:30:20;;;;;;;3.70;2.60;;;8.90;1.00;;;;;;5009192;28;20290;-74
2023/12/31 12:32:46;;;;;;;6.47;2.97;;;8.90;1.00;;;;;;5011810;28;21010;-74
2023/12/31 12:35:13;;;;;;;5.70;2.13;;;8.90;1.00;;;;;;5020105;28;20221;-75
2023/12/31 12:37:39;;;;;;;2.63;2.13;;;8.90;1.00;;;;;;5022671;28;20464;-74
2023/12/31 12:40:05;;;;;;;3.00;2.40;;;9.00;1.00;;;;;;5022691;28;20490;-75
2023/12/31 12:42:33;;;;;;;2.33;2.10;;;9.00;1.00;;;;;;5007811;28;20190;-74
2023/12/31 12:44:58;;;;;;;3.67;2.07;;;9.10;1.00;;;;;;5016091;28;20473;-76
2023/12/31 12:47:24;;;;;;;3.10;2.30;;;9.20;1.00;;;;;;5010513;28;20958;-74
2023/12/31 12:49:49;;;;;;;2.37;2.00;;;9.20;1.00;;;;;;5023327;28;20193;-75
2023/12/31 12:52:16;;;;;;;3.63;2.10;;;9.20;1.00;;;;;;5016647;28;20198;-74
2023/12/31 12:54:42;;;;;;;3.13;2.07;;;9.20;1.00;;;;;;5008574;28;20679;-74
2023/12/31 12:57:07;;;;;;;6.57;2.00;;;9.30;1.00;;;;;;5008468;28;20449;-73
2023/12/31 12:59:33;;;;;;;2.30;1.80;;;9.20;1.00;;;;;;5009106;28;20214;-73
2023/12/31 13:02:00;;;;;;;2.60;1.90;;;9.20;1.00;;;;;;5011818;28;20332;-74